sensor_id;sensor_type;location;lat;lon;timestamp;P1;durP1;ratioP1;P2;durP2;ratioP2
51382;SDS011;37475;43.358;1.248;2022-11-04T00:02:21;14.30;;;1.73;;
51382;SDS011;37475;43.358;1.248;2022-11-04T00:04:47;10.57;;;1.80;;
51382;SDS011;37475;43.358;1.248;2022-11-04T00:07:13;10.82;;;1.83;;
51382;SDS011;37475;43.358;1.248;2022-11-04T00:09:57;11.00;;;1.55;;
51382;SDS011;37475;43.358;1.248;2022-11-04T00:12:23;8.10;;;1.60;;
51382;SDS011;37475;43.358;1.248;2022-11-04T00:14:48;11.20;;;1.75;;
51382;SDS011;37475;43.358;1.248;2022-11-04T00:17:14;9.73;;;1.73;;
51382;SDS011;37475;43.358;1.248;2022-11-04T00:19:50;10.50;;;1.70;;
51382;SDS011;37475;43.358;1.248;2022-11-04T00:22:37;11.63;;;1.50;;
51382;SDS011;37475;43.358;1.248;2022-11-04T00:25:24;13.93;;;1.88;;
51382;SDS011;37475;43.358;1.248;2022-11-04T00:28:10;9.38;;;1.77;;
51382;SDS011;37475;43.358;1.248;2022-11-04T00:31:01;10.45;;;1.77;;
51382;SDS011;37475;43.358;1.248;2022-11-04T00:33:49;10.15;;;1.73;;
51382;SDS011;37475;43.358;1.248;2022-11-04T00:36:16;11.43;;;1.55;;
51382;SDS011;37475;43.358;1.248;2022-11-04T00:38:43;8.65;;;1.60;;
51382;SDS011;37475;43.358;1.248;2022-11-04T00:41:09;11.52;;;1.70;;
51382;SDS011;37475;43.358;1.248;2022-11-04T00:48:51;8.77;;;1.52;;
51382;SDS011;37475;43.358;1.248;2022-11-04T00:51:17;10.60;;;1.90;;
51382;SDS011;37475;43.358;1.248;2022-11-04T00:53:43;13.48;;;2.55;;
51382;SDS011;37475;43.358;1.248;2022-11-04T00:56:09;13.25;;;1.98;;
51382;SDS011;37475;43.358;1.248;2022-11-04T00:58:35;12.43;;;1.70;;
51382;SDS011;37475;43.358;1.248;2022-11-04T01:01:08;11.65;;;1.60;;
51382;SDS011;37475;43.358;1.248;2022-11-04T01:03:35;9.18;;;1.50;;
51382;SDS011;37475;43.358;1.248;2022-11-04T01:06:01;15.32;;;1.83;;
51382;SDS011;37475;43.358;1.248;2022-11-04T01:08:27;13.35;;;1.80;;
51382;SDS011;37475;43.358;1.248;2022-11-04T01:10:53;11.88;;;1.40;;
51382;SDS011;37475;43.358;1.248;2022-11-04T01:13:19;5.30;;;1.30;;
51382;SDS011;37475;43.358;1.248;2022-11-04T01:15:44;15.13;;;1.75;;
51382;SDS011;37475;43.358;1.248;2022-11-04T01:18:10;8.70;;;1.40;;
51382;SDS011;37475;43.358;1.248;2022-11-04T01:20:36;8.27;;;1.27;;
51382;SDS011;37475;43.358;1.248;2022-11-04T01:23:02;13.27;;;1.67;;
51382;SDS011;37475;43.358;1.248;2022-11-04T01:25:28;9.45;;;1.73;;
51382;SDS011;37475;43.358;1.248;2022-11-04T01:27:54;9.95;;;1.60;;
51382;SDS011;37475;43.358;1.248;2022-11-04T01:30:20;10.60;;;1.85;;
51382;SDS011;37475;43.358;1.248;2022-11-04T01:32:46;10.32;;;1.80;;
51382;SDS011;37475;43.358;1.248;2022-11-04T01:35:12;11.65;;;1.92;;
51382;SDS011;37475;43.358;1.248;2022-11-04T01:37:37;11.48;;;1.60;;
51382;SDS011;37475;43.358;1.248;2022-11-04T01:40:03;9.98;;;1.45;;
51382;SDS011;37475;43.358;1.248;2022-11-04T01:42:30;9.68;;;1.65;;
51382;SDS011;37475;43.358;1.248;2022-11-04T01:44:56;6.47;;;1.52;;
51382;SDS011;37475;43.358;1.248;2022-11-04T01:47:30;8.77;;;1.60;;
51382;SDS011;37475;43.358;1.248;2022-11-04T01:50:15;5.82;;;1.23;;
51382;SDS011;37475;43.358;1.248;2022-11-04T01:55:20;11.63;;;1.80;;
51382;SDS011;37475;43.358;1.248;2022-11-04T01:58:00;11.73;;;1.40;;
51382;SDS011;37475;43.358;1.248;2022-11-04T02:00:31;5.78;;;1.15;;
51382;SDS011;37475;43.358;1.248;2022-11-04T02:05:35;14.13;;;1.67;;
51382;SDS011;37475;43.358;1.248;2022-11-04T02:08:03;6.80;;;1.25;;
51382;SDS011;37475;43.358;1.248;2022-11-04T02:10:31;6.22;;;1.55;;
51382;SDS011;37475;43.358;1.248;2022-11-04T02:12:58;9.43;;;1.35;;
51382;SDS011;37475;43.358;1.248;2022-11-04T02:15:34;10.43;;;1.67;;
51382;SDS011;37475;43.358;1.248;2022-11-04T02:21:26;9.35;;;1.60;;
51382;SDS011;37475;43.358;1.248;2022-11-04T02:24:13;10.98;;;1.63;;
51382;SDS011;37475;43.358;1.248;2022-11-04T02:35:46;8.65;;;1.42;;
51382;SDS011;37475;43.358;1.248;2022-11-04T02:44:30;12.57;;;1.30;;
51382;SDS011;37475;43.358;1.248;2022-11-04T02:47:03;7.55;;;1.00;;
51382;SDS011;37475;43.358;1.248;2022-11-04T02:49:40;15.32;;;1.45;;
51382;SDS011;37475;43.358;1.248;2022-11-04T02:52:21;10.45;;;1.30;;
51382;SDS011;37475;43.358;1.248;2022-11-04T02:54:59;10.55;;;1.33;;
51382;SDS011;37475;43.358;1.248;2022-11-04T02:57:32;10.52;;;1.60;;
51382;SDS011;37475;43.358;1.248;2022-11-04T03:00:03;8.80;;;1.40;;
51382;SDS011;37475;43.358;1.248;2022-11-04T03:02:42;11.23;;;1.30;;
51382;SDS011;37475;43.358;1.248;2022-11-04T03:05:20;13.05;;;1.67;;
51382;SDS011;37475;43.358;1.248;2022-11-04T03:07:55;8.88;;;1.35;;
51382;SDS011;37475;43.358;1.248;2022-11-04T03:10:32;11.88;;;1.35;;
51382;SDS011;37475;43.358;1.248;2022-11-04T03:13:09;9.60;;;1.50;;
51382;SDS011;37475;43.358;1.248;2022-11-04T03:15:47;13.77;;;1.38;;
51382;SDS011;37475;43.358;1.248;2022-11-04T03:21:14;10.15;;;1.30;;
51382;SDS011;37475;43.358;1.248;2022-11-04T03:23:43;9.52;;;1.35;;
51382;SDS011;37475;43.358;1.248;2022-11-04T03:26:27;10.55;;;1.60;;
51382;SDS011;37475;43.358;1.248;2022-11-04T03:29:25;13.05;;;1.92;;
51382;SDS011;37475;43.358;1.248;2022-11-04T03:34:42;6.35;;;1.70;;
51382;SDS011;37475;43.358;1.248;2022-11-04T03:37:09;10.35;;;1.40;;
51382;SDS011;37475;43.358;1.248;2022-11-04T03:39:35;9.52;;;1.17;;
51382;SDS011;37475;43.358;1.248;2022-11-04T03:42:02;12.88;;;2.05;;
51382;SDS011;37475;43.358;1.248;2022-11-04T03:44:53;11.40;;;1.70;;
51382;SDS011;37475;43.358;1.248;2022-11-04T03:47:24;12.07;;;1.55;;
51382;SDS011;37475;43.358;1.248;2022-11-04T03:50:04;10.52;;;1.50;;
51382;SDS011;37475;43.358;1.248;2022-11-04T03:52:44;12.57;;;1.60;;
51382;SDS011;37475;43.358;1.248;2022-11-04T03:55:10;11.40;;;1.88;;
51382;SDS011;37475;43.358;1.248;2022-11-04T04:00:13;10.55;;;1.90;;
51382;SDS011;37475;43.358;1.248;2022-11-04T04:05:27;6.63;;;1.17;;
51382;SDS011;37475;43.358;1.248;2022-11-04T04:10:39;11.80;;;1.40;;
51382;SDS011;37475;43.358;1.248;2022-11-04T04:16:00;12.40;;;1.40;;
51382;SDS011;37475;43.358;1.248;2022-11-04T04:18:53;13.63;;;1.58;;
51382;SDS011;37475;43.358;1.248;2022-11-04T04:21:26;7.15;;;1.27;;
51382;SDS011;37475;43.358;1.248;2022-11-04T04:23:57;12.18;;;2.03;;
51382;SDS011;37475;43.358;1.248;2022-11-04T04:26:45;6.32;;;1.25;;
51382;SDS011;37475;43.358;1.248;2022-11-04T04:29:31;11.18;;;1.73;;
51382;SDS011;37475;43.358;1.248;2022-11-04T04:31:57;12.75;;;1.60;;
51382;SDS011;37475;43.358;1.248;2022-11-04T04:34:25;10.57;;;1.42;;
51382;SDS011;37475;43.358;1.248;2022-11-04T04:39:46;10.60;;;1.50;;
51382;SDS011;37475;43.358;1.248;2022-11-04T04:42:40;9.23;;;1.55;;
51382;SDS011;37475;43.358;1.248;2022-11-04T04:45:35;11.43;;;1.25;;
51382;SDS011;37475;43.358;1.248;2022-11-04T04:48:02;7.63;;;1.40;;
51382;SDS011;37475;43.358;1.248;2022-11-04T04:50:30;8.80;;;1.30;;
51382;SDS011;37475;43.358;1.248;2022-11-04T04:53:20;6.25;;;1.10;;
51382;SDS011;37475;43.358;1.248;2022-11-04T04:55:47;11.27;;;1.05;;
51382;SDS011;37475;43.358;1.248;2022-11-04T04:58:13;12.02;;;1.33;;
51382;SDS011;37475;43.358;1.248;2022-11-04T05:00:39;6.20;;;1.02;;
51382;SDS011;37475;43.358;1.248;2022-11-04T05:03:04;9.45;;;1.35;;
51382;SDS011;37475;43.358;1.248;2022-11-04T05:05:30;8.75;;;1.30;;
51382;SDS011;37475;43.358;1.248;2022-11-04T05:08:02;12.00;;;1.25;;
51382;SDS011;37475;43.358;1.248;2022-11-04T05:10:32;11.18;;;1.30;;
51382;SDS011;37475;43.358;1.248;2022-11-04T05:12:58;7.07;;;1.40;;
51382;SDS011;37475;43.358;1.248;2022-11-04T05:15:43;7.72;;;1.33;;
51382;SDS011;37475;43.358;1.248;2022-11-04T05:18:09;7.13;;;0.98;;
51382;SDS011;37475;43.358;1.248;2022-11-04T05:20:35;8.70;;;1.13;;
51382;SDS011;37475;43.358;1.248;2022-11-04T05:23:04;9.13;;;1.42;;
51382;SDS011;37475;43.358;1.248;2022-11-04T05:25:30;9.80;;;1.52;;
51382;SDS011;37475;43.358;1.248;2022-11-04T05:27:59;9.55;;;1.27;;
51382;SDS011;37475;43.358;1.248;2022-11-04T05:30:26;9.27;;;1.48;;
51382;SDS011;37475;43.358;1.248;2022-11-04T05:32:52;8.00;;;1.50;;
51382;SDS011;37475;43.358;1.248;2022-11-04T05:35:18;7.78;;;1.17;;
51382;SDS011;37475;43.358;1.248;2022-11-04T05:37:44;8.38;;;1.08;;
51382;SDS011;37475;43.358;1.248;2022-11-04T05:40:10;7.03;;;1.13;;
51382;SDS011;37475;43.358;1.248;2022-11-04T05:42:36;9.82;;;1.20;;
51382;SDS011;37475;43.358;1.248;2022-11-04T05:45:02;7.43;;;1.10;;
51382;SDS011;37475;43.358;1.248;2022-11-04T05:47:29;8.77;;;1.35;;
51382;SDS011;37475;43.358;1.248;2022-11-04T05:49:55;7.05;;;1.20;;
51382;SDS011;37475;43.358;1.248;2022-11-04T05:52:21;6.95;;;1.08;;
51382;SDS011;37475;43.358;1.248;2022-11-04T05:54:46;7.72;;;1.20;;
51382;SDS011;37475;43.358;1.248;2022-11-04T05:57:12;3.83;;;0.88;;
51382;SDS011;37475;43.358;1.248;2022-11-04T05:59:38;4.45;;;0.80;;
51382;SDS011;37475;43.358;1.248;2022-11-04T06:02:04;5.60;;;0.90;;
51382;SDS011;37475;43.358;1.248;2022-11-04T06:04:31;3.83;;;0.90;;
51382;SDS011;37475;43.358;1.248;2022-11-04T06:06:57;6.47;;;1.40;;
51382;SDS011;37475;43.358;1.248;2022-11-04T06:09:23;7.25;;;1.17;;
51382;SDS011;37475;43.358;1.248;2022-11-04T06:12:12;10.13;;;1.20;;
51382;SDS011;37475;43.358;1.248;2022-11-04T06:14:40;4.60;;;0.90;;
51382;SDS011;37475;43.358;1.248;2022-11-04T06:17:08;6.63;;;1.05;;
51382;SDS011;37475;43.358;1.248;2022-11-04T06:19:40;8.00;;;1.03;;
51382;SDS011;37475;43.358;1.248;2022-11-04T06:22:06;12.80;;;1.00;;
51382;SDS011;37475;43.358;1.248;2022-11-04T06:24:36;11.70;;;1.30;;
51382;SDS011;37475;43.358;1.248;2022-11-04T06:27:02;8.65;;;1.10;;
51382;SDS011;37475;43.358;1.248;2022-11-04T06:29:28;9.27;;;1.08;;
51382;SDS011;37475;43.358;1.248;2022-11-04T06:31:54;2.75;;;0.57;;
51382;SDS011;37475;43.358;1.248;2022-11-04T06:34:20;5.13;;;0.70;;
51382;SDS011;37475;43.358;1.248;2022-11-04T06:36:47;4.68;;;0.80;;
51382;SDS011;37475;43.358;1.248;2022-11-04T06:39:13;4.78;;;1.00;;
51382;SDS011;37475;43.358;1.248;2022-11-04T06:41:39;5.28;;;0.70;;
51382;SDS011;37475;43.358;1.248;2022-11-04T06:44:05;3.20;;;0.80;;
51382;SDS011;37475;43.358;1.248;2022-11-04T06:49:12;6.00;;;0.98;;
51382;SDS011;37475;43.358;1.248;2022-11-04T06:51:44;5.15;;;1.02;;
51382;SDS011;37475;43.358;1.248;2022-11-04T06:54:10;6.25;;;0.90;;
51382;SDS011;37475;43.358;1.248;2022-11-04T06:56:37;7.63;;;0.85;;
51382;SDS011;37475;43.358;1.248;2022-11-04T06:59:04;7.70;;;0.90;;
51382;SDS011;37475;43.358;1.248;2022-11-04T07:01:32;4.72;;;0.90;;
51382;SDS011;37475;43.358;1.248;2022-11-04T07:04:00;7.93;;;0.95;;
51382;SDS011;37475;43.358;1.248;2022-11-04T07:06:29;4.28;;;0.90;;
51382;SDS011;37475;43.358;1.248;2022-11-04T07:08:55;3.47;;;0.68;;
51382;SDS011;37475;43.358;1.248;2022-11-04T07:11:23;7.75;;;0.80;;
51382;SDS011;37475;43.358;1.248;2022-11-04T07:13:51;6.13;;;0.80;;
51382;SDS011;37475;43.358;1.248;2022-11-04T07:16:17;4.50;;;0.90;;
51382;SDS011;37475;43.358;1.248;2022-11-04T07:18:43;3.45;;;0.82;;
51382;SDS011;37475;43.358;1.248;2022-11-04T07:21:10;8.07;;;1.30;;
51382;SDS011;37475;43.358;1.248;2022-11-04T07:23:36;4.05;;;1.00;;
51382;SDS011;37475;43.358;1.248;2022-11-04T07:26:03;4.32;;;0.98;;
51382;SDS011;37475;43.358;1.248;2022-11-04T07:28:32;5.55;;;0.93;;
51382;SDS011;37475;43.358;1.248;2022-11-04T07:31:01;3.95;;;1.45;;
51382;SDS011;37475;43.358;1.248;2022-11-04T07:33:30;3.50;;;0.63;;
51382;SDS011;37475;43.358;1.248;2022-11-04T07:35:58;3.88;;;0.95;;
51382;SDS011;37475;43.358;1.248;2022-11-04T07:38:29;4.65;;;0.80;;
51382;SDS011;37475;43.358;1.248;2022-11-04T07:40:56;3.60;;;0.57;;
51382;SDS011;37475;43.358;1.248;2022-11-04T07:43:22;4.38;;;1.02;;
51382;SDS011;37475;43.358;1.248;2022-11-04T07:46:04;4.82;;;0.90;;
51382;SDS011;37475;43.358;1.248;2022-11-04T07:48:36;6.47;;;1.10;;
51382;SDS011;37475;43.358;1.248;2022-11-04T07:51:02;5.22;;;1.08;;
51382;SDS011;37475;43.358;1.248;2022-11-04T07:53:30;4.95;;;0.95;;
51382;SDS011;37475;43.358;1.248;2022-11-04T07:55:57;2.83;;;0.50;;
51382;SDS011;37475;43.358;1.248;2022-11-04T07:58:23;1.25;;;0.57;;
51382;SDS011;37475;43.358;1.248;2022-11-04T08:00:49;1.67;;;0.50;;
51382;SDS011;37475;43.358;1.248;2022-11-04T08:03:21;3.22;;;0.40;;
51382;SDS011;37475;43.358;1.248;2022-11-04T08:05:53;3.83;;;0.80;;
51382;SDS011;37475;43.358;1.248;2022-11-04T08:08:23;2.95;;;0.52;;
51382;SDS011;37475;43.358;1.248;2022-11-04T08:10:56;2.45;;;0.47;;
51382;SDS011;37475;43.358;1.248;2022-11-04T08:13:29;2.92;;;0.60;;
51382;SDS011;37475;43.358;1.248;2022-11-04T08:15:56;3.50;;;0.60;;
51382;SDS011;37475;43.358;1.248;2022-11-04T08:18:27;3.95;;;0.52;;
51382;SDS011;37475;43.358;1.248;2022-11-04T08:20:54;7.13;;;0.77;;
51382;SDS011;37475;43.358;1.248;2022-11-04T08:23:20;3.67;;;0.85;;
51382;SDS011;37475;43.358;1.248;2022-11-04T08:25:45;2.13;;;0.52;;
51382;SDS011;37475;43.358;1.248;2022-11-04T08:28:11;6.00;;;1.10;;
51382;SDS011;37475;43.358;1.248;2022-11-04T08:31:03;2.53;;;0.57;;
51382;SDS011;37475;43.358;1.248;2022-11-04T08:33:33;2.17;;;0.57;;
51382;SDS011;37475;43.358;1.248;2022-11-04T08:36:03;2.83;;;0.68;;
51382;SDS011;37475;43.358;1.248;2022-11-04T08:38:33;4.25;;;0.80;;
51382;SDS011;37475;43.358;1.248;2022-11-04T08:41:00;6.03;;;0.70;;
51382;SDS011;37475;43.358;1.248;2022-11-04T08:43:28;3.25;;;0.77;;
51382;SDS011;37475;43.358;1.248;2022-11-04T08:45:54;2.72;;;0.60;;
51382;SDS011;37475;43.358;1.248;2022-11-04T08:48:20;2.83;;;0.57;;
51382;SDS011;37475;43.358;1.248;2022-11-04T08:50:49;3.83;;;0.60;;
51382;SDS011;37475;43.358;1.248;2022-11-04T08:53:17;2.50;;;0.50;;
51382;SDS011;37475;43.358;1.248;2022-11-04T08:55:43;4.07;;;0.57;;
51382;SDS011;37475;43.358;1.248;2022-11-04T08:58:09;2.35;;;0.60;;
51382;SDS011;37475;43.358;1.248;2022-11-04T09:00:36;2.75;;;0.60;;
51382;SDS011;37475;43.358;1.248;2022-11-04T09:03:02;1.85;;;0.47;;
51382;SDS011;37475;43.358;1.248;2022-11-04T09:05:28;1.40;;;0.50;;
51382;SDS011;37475;43.358;1.248;2022-11-04T09:07:55;2.20;;;0.57;;
51382;SDS011;37475;43.358;1.248;2022-11-04T09:10:20;2.83;;;0.68;;
51382;SDS011;37475;43.358;1.248;2022-11-04T09:12:47;2.05;;;0.60;;
51382;SDS011;37475;43.358;1.248;2022-11-04T09:15:12;3.17;;;0.80;;
51382;SDS011;37475;43.358;1.248;2022-11-04T09:17:39;2.63;;;0.73;;
51382;SDS011;37475;43.358;1.248;2022-11-04T09:20:05;3.33;;;1.08;;
51382;SDS011;37475;43.358;1.248;2022-11-04T09:22:31;2.97;;;0.95;;
51382;SDS011;37475;43.358;1.248;2022-11-04T09:24:57;2.00;;;1.00;;
51382;SDS011;37475;43.358;1.248;2022-11-04T09:27:23;4.82;;;0.90;;
51382;SDS011;37475;43.358;1.248;2022-11-04T09:29:49;0.80;;;0.50;;
51382;SDS011;37475;43.358;1.248;2022-11-04T09:32:15;1.48;;;0.45;;
51382;SDS011;37475;43.358;1.248;2022-11-04T09:34:41;1.80;;;0.60;;
51382;SDS011;37475;43.358;1.248;2022-11-04T09:37:06;2.05;;;0.45;;
51382;SDS011;37475;43.358;1.248;2022-11-04T09:39:32;2.17;;;0.60;;
51382;SDS011;37475;43.358;1.248;2022-11-04T09:45:16;3.10;;;0.60;;
51382;SDS011;37475;43.358;1.248;2022-11-04T09:47:45;1.70;;;0.50;;
51382;SDS011;37475;43.358;1.248;2022-11-04T09:50:15;2.03;;;0.38;;
51382;SDS011;37475;43.358;1.248;2022-11-04T09:52:49;3.40;;;0.60;;
51382;SDS011;37475;43.358;1.248;2022-11-04T09:55:22;7.18;;;1.08;;
51382;SDS011;37475;43.358;1.248;2022-11-04T09:57:55;4.95;;;0.70;;
51382;SDS011;37475;43.358;1.248;2022-11-04T10:00:22;4.03;;;0.70;;
51382;SDS011;37475;43.358;1.248;2022-11-04T10:28:42;2.85;;;0.80;;
51382;SDS011;37475;43.358;1.248;2022-11-04T10:31:14;4.90;;;0.63;;
51382;SDS011;37475;43.358;1.248;2022-11-04T10:33:47;5.00;;;0.70;;
51382;SDS011;37475;43.358;1.248;2022-11-04T10:36:19;4.55;;;0.95;;
51382;SDS011;37475;43.358;1.248;2022-11-04T10:38:51;4.20;;;0.90;;
51382;SDS011;37475;43.358;1.248;2022-11-04T10:43:47;5.90;;;0.90;;
51382;SDS011;37475;43.358;1.248;2022-11-04T10:46:51;4.22;;;0.85;;
51382;SDS011;37475;43.358;1.248;2022-11-04T10:52:12;3.63;;;0.90;;
51382;SDS011;37475;43.358;1.248;2022-11-04T10:54:42;6.75;;;0.80;;
51382;SDS011;37475;43.358;1.248;2022-11-04T10:57:11;6.57;;;1.95;;
51382;SDS011;37475;43.358;1.248;2022-11-04T11:00:30;8.45;;;1.40;;
51382;SDS011;37475;43.358;1.248;2022-11-04T11:02:57;6.10;;;0.93;;
51382;SDS011;37475;43.358;1.248;2022-11-04T11:05:24;13.65;;;1.50;;
51382;SDS011;37475;43.358;1.248;2022-11-04T11:07:51;5.10;;;1.20;;
51382;SDS011;37475;43.358;1.248;2022-11-04T11:13:05;9.85;;;1.27;;
51382;SDS011;37475;43.358;1.248;2022-11-04T11:15:48;6.88;;;1.40;;
51382;SDS011;37475;43.358;1.248;2022-11-04T11:18:33;6.35;;;1.10;;
51382;SDS011;37475;43.358;1.248;2022-11-04T11:21:05;7.97;;;1.30;;
51382;SDS011;37475;43.358;1.248;2022-11-04T11:23:35;9.95;;;1.40;;
51382;SDS011;37475;43.358;1.248;2022-11-04T11:26:20;6.82;;;1.40;;
51382;SDS011;37475;43.358;1.248;2022-11-04T11:28:56;7.00;;;1.00;;
51382;SDS011;37475;43.358;1.248;2022-11-04T11:31:34;7.22;;;0.95;;
51382;SDS011;37475;43.358;1.248;2022-11-04T11:34:04;7.53;;;1.15;;
51382;SDS011;37475;43.358;1.248;2022-11-04T11:36:39;7.10;;;1.10;;
51382;SDS011;37475;43.358;1.248;2022-11-04T11:42:00;8.85;;;1.67;;
51382;SDS011;37475;43.358;1.248;2022-11-04T11:44:36;10.63;;;1.45;;
51382;SDS011;37475;43.358;1.248;2022-11-04T11:47:19;10.32;;;1.50;;
51382;SDS011;37475;43.358;1.248;2022-11-04T11:52:45;5.88;;;1.30;;
51382;SDS011;37475;43.358;1.248;2022-11-04T11:55:14;9.32;;;1.63;;
51382;SDS011;37475;43.358;1.248;2022-11-04T11:58:05;4.50;;;1.10;;
51382;SDS011;37475;43.358;1.248;2022-11-04T12:00:45;8.52;;;1.55;;
51382;SDS011;37475;43.358;1.248;2022-11-04T12:17:34;6.47;;;1.50;;
51382;SDS011;37475;43.358;1.248;2022-11-04T12:23:35;14.98;;;1.60;;
51382;SDS011;37475;43.358;1.248;2022-11-04T12:26:38;18.83;;;2.88;;
51382;SDS011;37475;43.358;1.248;2022-11-04T12:40:55;6.38;;;1.00;;
51382;SDS011;37475;43.358;1.248;2022-11-04T12:44:03;11.15;;;1.25;;
51382;SDS011;37475;43.358;1.248;2022-11-04T13:01:02;10.75;;;1.65;;
51382;SDS011;37475;43.358;1.248;2022-11-04T13:04:15;7.75;;;1.23;;
51382;SDS011;37475;43.358;1.248;2022-11-04T13:06:52;3.35;;;0.60;;
51382;SDS011;37475;43.358;1.248;2022-11-04T13:09:35;4.13;;;0.70;;
51382;SDS011;37475;43.358;1.248;2022-11-04T13:12:25;5.07;;;1.10;;
51382;SDS011;37475;43.358;1.248;2022-11-04T13:17:34;3.28;;;0.70;;
51382;SDS011;37475;43.358;1.248;2022-11-04T13:22:58;4.40;;;1.00;;
51382;SDS011;37475;43.358;1.248;2022-11-04T13:28:15;6.53;;;1.02;;
51382;SDS011;37475;43.358;1.248;2022-11-04T13:39:21;7.00;;;1.20;;
51382;SDS011;37475;43.358;1.248;2022-11-04T13:45:50;5.18;;;0.88;;
51382;SDS011;37475;43.358;1.248;2022-11-04T13:48:20;7.75;;;1.20;;
51382;SDS011;37475;43.358;1.248;2022-11-04T13:50:55;5.43;;;1.42;;
51382;SDS011;37475;43.358;1.248;2022-11-04T13:53:40;10.73;;;1.98;;
51382;SDS011;37475;43.358;1.248;2022-11-04T13:56:07;9.27;;;1.80;;
51382;SDS011;37475;43.358;1.248;2022-11-04T13:58:34;4.82;;;1.52;;
51382;SDS011;37475;43.358;1.248;2022-11-04T14:01:24;6.47;;;1.33;;
51382;SDS011;37475;43.358;1.248;2022-11-04T14:14:34;5.32;;;1.48;;
51382;SDS011;37475;43.358;1.248;2022-11-04T14:19:58;6.80;;;1.27;;
51382;SDS011;37475;43.358;1.248;2022-11-04T14:22:50;7.60;;;1.23;;
51382;SDS011;37475;43.358;1.248;2022-11-04T14:27:58;9.27;;;1.20;;
51382;SDS011;37475;43.358;1.248;2022-11-04T14:30:40;6.30;;;1.10;;
51382;SDS011;37475;43.358;1.248;2022-11-04T14:41:47;11.30;;;1.75;;
51382;SDS011;37475;43.358;1.248;2022-11-04T14:49:49;8.70;;;1.48;;
51382;SDS011;37475;43.358;1.248;2022-11-04T14:52:36;12.00;;;2.40;;
51382;SDS011;37475;43.358;1.248;2022-11-04T14:55:14;9.98;;;1.92;;
51382;SDS011;37475;43.358;1.248;2022-11-04T15:05:47;11.43;;;2.20;;
51382;SDS011;37475;43.358;1.248;2022-11-04T15:08:30;8.45;;;1.67;;
51382;SDS011;37475;43.358;1.248;2022-11-04T15:11:12;14.93;;;2.28;;
51382;SDS011;37475;43.358;1.248;2022-11-04T15:14:11;6.93;;;1.63;;
51382;SDS011;37475;43.358;1.248;2022-11-04T15:16:46;9.45;;;1.60;;
51382;SDS011;37475;43.358;1.248;2022-11-04T15:19:36;9.57;;;1.60;;
51382;SDS011;37475;43.358;1.248;2022-11-04T15:22:02;6.47;;;1.25;;
51382;SDS011;37475;43.358;1.248;2022-11-04T15:24:30;8.82;;;2.03;;
51382;SDS011;37475;43.358;1.248;2022-11-04T15:26:59;15.05;;;1.83;;
51382;SDS011;37475;43.358;1.248;2022-11-04T15:29:29;6.43;;;1.33;;
51382;SDS011;37475;43.358;1.248;2022-11-04T15:31:57;11.07;;;1.40;;
51382;SDS011;37475;43.358;1.248;2022-11-04T15:34:25;12.93;;;1.65;;
51382;SDS011;37475;43.358;1.248;2022-11-04T15:36:55;7.25;;;1.58;;
51382;SDS011;37475;43.358;1.248;2022-11-04T15:39:25;14.32;;;1.88;;
51382;SDS011;37475;43.358;1.248;2022-11-04T15:41:56;7.72;;;1.42;;
51382;SDS011;37475;43.358;1.248;2022-11-04T15:44:47;10.02;;;1.92;;
51382;SDS011;37475;43.358;1.248;2022-11-04T15:49:42;6.88;;;1.98;;
51382;SDS011;37475;43.358;1.248;2022-11-04T15:52:14;9.82;;;1.35;;
51382;SDS011;37475;43.358;1.248;2022-11-04T15:54:50;8.93;;;1.70;;
51382;SDS011;37475;43.358;1.248;2022-11-04T15:59:51;5.95;;;1.75;;
51382;SDS011;37475;43.358;1.248;2022-11-04T16:02:25;9.55;;;1.70;;
51382;SDS011;37475;43.358;1.248;2022-11-04T16:05:03;9.52;;;1.70;;
51382;SDS011;37475;43.358;1.248;2022-11-04T16:07:45;10.88;;;1.77;;
51382;SDS011;37475;43.358;1.248;2022-11-04T16:10:27;13.60;;;1.67;;
51382;SDS011;37475;43.358;1.248;2022-11-04T16:13:16;8.82;;;1.48;;
51382;SDS011;37475;43.358;1.248;2022-11-04T16:15:51;10.95;;;1.90;;
51382;SDS011;37475;43.358;1.248;2022-11-04T16:20:59;9.43;;;1.80;;
51382;SDS011;37475;43.358;1.248;2022-11-04T16:23:32;9.35;;;1.92;;
51382;SDS011;37475;43.358;1.248;2022-11-04T16:26:07;13.82;;;1.88;;
51382;SDS011;37475;43.358;1.248;2022-11-04T16:28:37;10.05;;;1.70;;
51382;SDS011;37475;43.358;1.248;2022-11-04T16:31:05;17.23;;;3.58;;
51382;SDS011;37475;43.358;1.248;2022-11-04T16:33:52;15.63;;;2.17;;
51382;SDS011;37475;43.358;1.248;2022-11-04T16:36:18;9.82;;;1.80;;
51382;SDS011;37475;43.358;1.248;2022-11-04T16:38:54;9.03;;;1.80;;
51382;SDS011;37475;43.358;1.248;2022-11-04T16:41:23;12.27;;;2.28;;
51382;SDS011;37475;43.358;1.248;2022-11-04T16:43:54;12.00;;;1.75;;
51382;SDS011;37475;43.358;1.248;2022-11-04T16:46:21;13.27;;;2.35;;
51382;SDS011;37475;43.358;1.248;2022-11-04T16:48:47;13.77;;;2.30;;
51382;SDS011;37475;43.358;1.248;2022-11-04T16:51:14;11.27;;;2.13;;
51382;SDS011;37475;43.358;1.248;2022-11-04T16:53:50;11.93;;;2.30;;
51382;SDS011;37475;43.358;1.248;2022-11-04T16:56:18;16.20;;;2.60;;
51382;SDS011;37475;43.358;1.248;2022-11-04T16:58:49;14.15;;;2.00;;
51382;SDS011;37475;43.358;1.248;2022-11-04T17:01:15;16.23;;;2.55;;
51382;SDS011;37475;43.358;1.248;2022-11-04T17:03:43;11.82;;;1.90;;
51382;SDS011;37475;43.358;1.248;2022-11-04T17:06:10;11.25;;;2.55;;
51382;SDS011;37475;43.358;1.248;2022-11-04T17:08:38;10.15;;;2.20;;
51382;SDS011;37475;43.358;1.248;2022-11-04T17:11:06;16.15;;;2.38;;
51382;SDS011;37475;43.358;1.248;2022-11-04T17:13:32;11.15;;;2.25;;
51382;SDS011;37475;43.358;1.248;2022-11-04T17:15:58;13.93;;;2.33;;
51382;SDS011;37475;43.358;1.248;2022-11-04T17:18:24;9.30;;;1.95;;
51382;SDS011;37475;43.358;1.248;2022-11-04T17:20:53;17.83;;;2.42;;
51382;SDS011;37475;43.358;1.248;2022-11-04T17:23:20;13.13;;;1.98;;
51382;SDS011;37475;43.358;1.248;2022-11-04T17:25:46;8.65;;;2.10;;
51382;SDS011;37475;43.358;1.248;2022-11-04T17:28:13;11.73;;;2.17;;
51382;SDS011;37475;43.358;1.248;2022-11-04T17:30:40;16.80;;;2.20;;
51382;SDS011;37475;43.358;1.248;2022-11-04T17:33:13;21.10;;;3.75;;
51382;SDS011;37475;43.358;1.248;2022-11-04T17:35:41;16.17;;;2.70;;
51382;SDS011;37475;43.358;1.248;2022-11-04T17:38:09;18.00;;;2.92;;
51382;SDS011;37475;43.358;1.248;2022-11-04T17:40:36;11.43;;;2.25;;
51382;SDS011;37475;43.358;1.248;2022-11-04T17:43:22;21.83;;;2.80;;
51382;SDS011;37475;43.358;1.248;2022-11-04T17:46:06;16.30;;;2.63;;
51382;SDS011;37475;43.358;1.248;2022-11-04T17:49:00;15.35;;;2.83;;
51382;SDS011;37475;43.358;1.248;2022-11-04T17:51:59;14.93;;;2.40;;
51382;SDS011;37475;43.358;1.248;2022-11-04T17:54:26;13.60;;;2.20;;
51382;SDS011;37475;43.358;1.248;2022-11-04T17:56:56;16.27;;;2.40;;
51382;SDS011;37475;43.358;1.248;2022-11-04T17:59:22;11.35;;;2.83;;
51382;SDS011;37475;43.358;1.248;2022-11-04T18:01:49;12.27;;;2.08;;
51382;SDS011;37475;43.358;1.248;2022-11-04T18:04:16;15.68;;;2.65;;
51382;SDS011;37475;43.358;1.248;2022-11-04T18:06:46;15.93;;;2.30;;
51382;SDS011;37475;43.358;1.248;2022-11-04T18:09:12;11.18;;;1.80;;
51382;SDS011;37475;43.358;1.248;2022-11-04T18:11:42;17.38;;;2.50;;
51382;SDS011;37475;43.358;1.248;2022-11-04T18:14:29;17.88;;;2.78;;
51382;SDS011;37475;43.358;1.248;2022-11-04T18:16:55;16.50;;;2.50;;
51382;SDS011;37475;43.358;1.248;2022-11-04T18:19:21;16.30;;;2.45;;
51382;SDS011;37475;43.358;1.248;2022-11-04T18:21:48;13.15;;;2.28;;
51382;SDS011;37475;43.358;1.248;2022-11-04T18:24:15;13.02;;;1.98;;
51382;SDS011;37475;43.358;1.248;2022-11-04T18:26:41;12.30;;;1.85;;
51382;SDS011;37475;43.358;1.248;2022-11-04T18:29:08;10.45;;;2.20;;
51382;SDS011;37475;43.358;1.248;2022-11-04T18:31:35;11.68;;;1.83;;
51382;SDS011;37475;43.358;1.248;2022-11-04T18:34:04;13.35;;;2.53;;
51382;SDS011;37475;43.358;1.248;2022-11-04T18:36:33;17.33;;;3.10;;